2022年6月26日 11:00 上午2022年6月26日 11:00 下午有效
时间
星期日
11:00 上午
星期日
12:00 下午
星期日
1:00 下午
星期日
2:00 下午
星期日
3:00 下午
星期日
4:00 下午
星期日
5:00 下午
星期日
6:00 下午
星期日
7:00 下午
星期日
8:00 下午
星期日
9:00 下午
星期日
10:00 下午
代码
LIFR
LIFR
LIFR
LIFR
LIFR
LIFR
LIFR
LIFR
LIFR
LIFR
LIFR
LIFR
天气
天空晴朗
天空晴朗
天空晴朗
天空晴朗
天空晴朗
天空晴朗
天空晴朗
天空晴朗
天空晴朗
天空晴朗
天空晴朗
天空晴朗
能见度
0 mi
0 mi
0 mi
0 mi
0 mi
0 mi
0 mi
0 mi
0 mi
0 mi
0 mi
0 mi
天花板
-
-
-
-
-
-
-
-
-
-
-
-
240°
240°
240°
240°
240°
240°
240°
240°
240°
240°
240°
240°
240°
240°
240°
240°
240°
240°
090°
090°
090°
090°
090°
090°
速度
7 kt
7 kt
7 kt
7 kt
7 kt
7 kt
7 kt
7 kt
7 kt
7 kt
7 kt
2 kt
阵风
温度/星期日
10:08 下午

原版的

TAF EHLW 260833Z 2609/2621 24007KT FEW016 SCT020
BECMG 2618/2620 09002KT

TAF Vlieland Heliport

Vlieland Heliport是Vlieland,荷兰中的直升机场。 视场标高为37 ft。

这份报告是针对2022年6月26日 10:33 上午, 当地时间在Leeuwarden Air Base进行的。 从2022年6月26日 11:00 上午到2022年6月26日 11:00 下午, 当地时间有效.

预报

  • 从星期日 11:00 上午到11:00 下午

    • 风: 风来自240°方向,速度为7 kt。
    • 乌云: 几云在1.600 ft的高度 和 疏云,零星散落的云朵在2.000 ft的高度.

  • 介于星期日 8:00 下午和10:00 下午之间

    • 风: 风来自090°方向,速度为2 kt。

白天

今天,太阳从5:13 上午升起,在10:11 下午降落。 这适用于Vlieland Heliport,世界夏令时可能有所不同。 当地时间与世界标准时间之间的时差为+2 小时。 夏令时目前正在进行中。

下载我们的应用程序

在您的手机和平板电脑上轻松访问所有航空天气。
有许多网站上没有的功能,如离线支持和个人机场列表。

Studio Eveline

Benalmádena
España

我们和第三方通过cookies跟踪您在我们网站上的上网行为。如果您继续,我们认为您同意我们的cookie政策。 了解更多